sensor_id;sensor_type;location;lat;lon;timestamp;P1;durP1;ratioP1;P2;durP2;ratioP2
17283;SDS011;8760;52.248;20.952;2023-04-24T00:00:21;11.43;;;7.40;;
17283;SDS011;8760;52.248;20.952;2023-04-24T00:02:48;8.70;;;6.67;;
17283;SDS011;8760;52.248;20.952;2023-04-24T00:05:15;12.37;;;7.40;;
17283;SDS011;8760;52.248;20.952;2023-04-24T00:07:43;13.10;;;6.80;;
17283;SDS011;8760;52.248;20.952;2023-04-24T00:10:11;10.57;;;6.80;;
17283;SDS011;8760;52.248;20.952;2023-04-24T00:12:38;12.00;;;7.50;;
17283;SDS011;8760;52.248;20.952;2023-04-24T00:15:07;8.90;;;6.73;;
17283;SDS011;8760;52.248;20.952;2023-04-24T00:17:35;9.13;;;6.90;;
17283;SDS011;8760;52.248;20.952;2023-04-24T00:20:02;11.13;;;6.80;;
17283;SDS011;8760;52.248;20.952;2023-04-24T00:22:32;12.27;;;7.00;;
17283;SDS011;8760;52.248;20.952;2023-04-24T00:24:59;7.67;;;6.87;;
17283;SDS011;8760;52.248;20.952;2023-04-24T00:27:26;11.00;;;7.40;;
17283;SDS011;8760;52.248;20.952;2023-04-24T00:29:53;9.40;;;7.10;;
17283;SDS011;8760;52.248;20.952;2023-04-24T00:32:21;15.03;;;7.57;;
17283;SDS011;8760;52.248;20.952;2023-04-24T00:34:48;11.37;;;7.17;;
17283;SDS011;8760;52.248;20.952;2023-04-24T00:37:15;10.77;;;7.40;;
17283;SDS011;8760;52.248;20.952;2023-04-24T00:39:42;11.90;;;7.40;;
17283;SDS011;8760;52.248;20.952;2023-04-24T00:42:08;9.47;;;7.73;;
17283;SDS011;8760;52.248;20.952;2023-04-24T00:44:36;11.63;;;7.47;;
17283;SDS011;8760;52.248;20.952;2023-04-24T00:47:03;10.57;;;7.00;;
17283;SDS011;8760;52.248;20.952;2023-04-24T00:49:31;10.33;;;7.17;;
17283;SDS011;8760;52.248;20.952;2023-04-24T00:51:58;10.13;;;7.20;;
17283;SDS011;8760;52.248;20.952;2023-04-24T00:54:25;12.17;;;7.77;;
17283;SDS011;8760;52.248;20.952;2023-04-24T00:56:52;13.90;;;7.77;;
17283;SDS011;8760;52.248;20.952;2023-04-24T00:59:20;11.37;;;7.10;;
17283;SDS011;8760;52.248;20.952;2023-04-24T01:01:47;10.17;;;7.07;;
17283;SDS011;8760;52.248;20.952;2023-04-24T01:04:13;9.77;;;7.40;;
17283;SDS011;8760;52.248;20.952;2023-04-24T01:06:44;12.40;;;7.43;;
17283;SDS011;8760;52.248;20.952;2023-04-24T01:09:11;9.17;;;7.03;;
17283;SDS011;8760;52.248;20.952;2023-04-24T01:11:39;10.80;;;7.63;;
17283;SDS011;8760;52.248;20.952;2023-04-24T01:14:08;9.20;;;7.57;;
17283;SDS011;8760;52.248;20.952;2023-04-24T01:16:35;11.00;;;7.50;;
17283;SDS011;8760;52.248;20.952;2023-04-24T01:19:03;14.63;;;8.07;;
17283;SDS011;8760;52.248;20.952;2023-04-24T01:21:30;12.43;;;7.23;;
17283;SDS011;8760;52.248;20.952;2023-04-24T01:24:02;11.30;;;7.57;;
17283;SDS011;8760;52.248;20.952;2023-04-24T01:26:29;9.37;;;7.80;;
17283;SDS011;8760;52.248;20.952;2023-04-24T01:28:56;10.97;;;7.23;;
17283;SDS011;8760;52.248;20.952;2023-04-24T01:31:23;11.80;;;7.50;;
17283;SDS011;8760;52.248;20.952;2023-04-24T01:33:51;11.33;;;8.00;;
17283;SDS011;8760;52.248;20.952;2023-04-24T01:36:18;11.50;;;7.50;;
17283;SDS011;8760;52.248;20.952;2023-04-24T01:38:46;9.20;;;7.20;;
17283;SDS011;8760;52.248;20.952;2023-04-24T01:41:14;12.80;;;7.40;;
17283;SDS011;8760;52.248;20.952;2023-04-24T01:43:41;11.23;;;7.27;;
17283;SDS011;8760;52.248;20.952;2023-04-24T01:46:08;12.63;;;7.37;;
17283;SDS011;8760;52.248;20.952;2023-04-24T01:48:35;11.77;;;7.40;;
17283;SDS011;8760;52.248;20.952;2023-04-24T01:51:02;14.30;;;7.70;;
17283;SDS011;8760;52.248;20.952;2023-04-24T01:53:29;9.20;;;7.37;;
17283;SDS011;8760;52.248;20.952;2023-04-24T01:55:56;9.73;;;7.23;;
17283;SDS011;8760;52.248;20.952;2023-04-24T01:58:25;12.37;;;8.03;;
17283;SDS011;8760;52.248;20.952;2023-04-24T02:00:52;11.23;;;7.67;;
17283;SDS011;8760;52.248;20.952;2023-04-24T02:03:21;9.33;;;7.43;;
17283;SDS011;8760;52.248;20.952;2023-04-24T02:05:48;13.70;;;7.50;;
17283;SDS011;8760;52.248;20.952;2023-04-24T02:08:15;9.73;;;7.67;;
17283;SDS011;8760;52.248;20.952;2023-04-24T02:10:42;11.50;;;7.50;;
17283;SDS011;8760;52.248;20.952;2023-04-24T02:13:09;10.20;;;7.33;;
17283;SDS011;8760;52.248;20.952;2023-04-24T02:15:37;11.27;;;7.80;;
17283;SDS011;8760;52.248;20.952;2023-04-24T02:18:04;9.43;;;7.40;;
17283;SDS011;8760;52.248;20.952;2023-04-24T02:20:31;11.57;;;7.60;;
17283;SDS011;8760;52.248;20.952;2023-04-24T02:23:00;9.27;;;7.50;;
17283;SDS011;8760;52.248;20.952;2023-04-24T02:25:27;14.03;;;8.23;;
17283;SDS011;8760;52.248;20.952;2023-04-24T02:27:54;9.27;;;7.47;;
17283;SDS011;8760;52.248;20.952;2023-04-24T02:30:21;12.50;;;7.60;;
17283;SDS011;8760;52.248;20.952;2023-04-24T02:32:49;13.40;;;8.80;;
17283;SDS011;8760;52.248;20.952;2023-04-24T02:35:16;10.20;;;7.87;;
17283;SDS011;8760;52.248;20.952;2023-04-24T02:37:43;11.70;;;7.70;;
17283;SDS011;8760;52.248;20.952;2023-04-24T02:40:10;9.63;;;7.53;;
17283;SDS011;8760;52.248;20.952;2023-04-24T02:42:37;12.37;;;8.57;;
17283;SDS011;8760;52.248;20.952;2023-04-24T02:45:05;9.90;;;7.80;;
17283;SDS011;8760;52.248;20.952;2023-04-24T02:47:32;11.57;;;8.23;;
17283;SDS011;8760;52.248;20.952;2023-04-24T02:50:01;11.17;;;7.77;;
17283;SDS011;8760;52.248;20.952;2023-04-24T02:52:28;11.30;;;7.60;;
17283;SDS011;8760;52.248;20.952;2023-04-24T02:54:55;11.40;;;7.87;;
17283;SDS011;8760;52.248;20.952;2023-04-24T02:57:22;14.03;;;8.13;;
17283;SDS011;8760;52.248;20.952;2023-04-24T02:59:48;12.50;;;8.60;;
17283;SDS011;8760;52.248;20.952;2023-04-24T03:02:15;10.63;;;8.73;;
17283;SDS011;8760;52.248;20.952;2023-04-24T03:04:42;12.03;;;9.13;;
17283;SDS011;8760;52.248;20.952;2023-04-24T03:07:11;12.83;;;8.27;;
17283;SDS011;8760;52.248;20.952;2023-04-24T03:09:37;14.40;;;8.90;;
17283;SDS011;8760;52.248;20.952;2023-04-24T03:12:04;14.17;;;9.00;;
17283;SDS011;8760;52.248;20.952;2023-04-24T03:14:31;12.70;;;8.83;;
17283;SDS011;8760;52.248;20.952;2023-04-24T03:16:58;10.53;;;8.67;;
17283;SDS011;8760;52.248;20.952;2023-04-24T03:19:25;14.93;;;8.90;;
17283;SDS011;8760;52.248;20.952;2023-04-24T03:21:53;12.83;;;8.40;;
17283;SDS011;8760;52.248;20.952;2023-04-24T03:24:21;12.10;;;8.57;;
17283;SDS011;8760;52.248;20.952;2023-04-24T03:26:48;14.23;;;8.90;;
17283;SDS011;8760;52.248;20.952;2023-04-24T03:29:15;11.37;;;8.63;;
17283;SDS011;8760;52.248;20.952;2023-04-24T03:31:42;11.43;;;8.60;;
17283;SDS011;8760;52.248;20.952;2023-04-24T03:34:09;11.20;;;8.40;;
17283;SDS011;8760;52.248;20.952;2023-04-24T03:36:36;10.13;;;7.93;;
17283;SDS011;8760;52.248;20.952;2023-04-24T03:39:03;12.10;;;8.33;;
17283;SDS011;8760;52.248;20.952;2023-04-24T03:41:31;11.93;;;8.23;;
17283;SDS011;8760;52.248;20.952;2023-04-24T03:43:58;13.50;;;7.90;;
17283;SDS011;8760;52.248;20.952;2023-04-24T03:46:25;15.60;;;8.10;;
17283;SDS011;8760;52.248;20.952;2023-04-24T03:48:52;12.17;;;7.60;;
17283;SDS011;8760;52.248;20.952;2023-04-24T03:51:19;13.40;;;7.43;;
17283;SDS011;8760;52.248;20.952;2023-04-24T03:53:46;12.17;;;7.07;;
17283;SDS011;8760;52.248;20.952;2023-04-24T03:56:13;11.20;;;7.60;;
17283;SDS011;8760;52.248;20.952;2023-04-24T03:58:42;10.77;;;7.70;;
17283;SDS011;8760;52.248;20.952;2023-04-24T04:01:09;11.53;;;7.73;;
17283;SDS011;8760;52.248;20.952;2023-04-24T04:03:36;17.67;;;8.27;;
17283;SDS011;8760;52.248;20.952;2023-04-24T04:06:03;18.50;;;8.67;;
17283;SDS011;8760;52.248;20.952;2023-04-24T04:08:30;15.53;;;7.90;;
17283;SDS011;8760;52.248;20.952;2023-04-24T04:10:57;12.83;;;7.50;;
17283;SDS011;8760;52.248;20.952;2023-04-24T04:13:24;14.63;;;8.43;;
17283;SDS011;8760;52.248;20.952;2023-04-24T04:15:52;11.67;;;7.30;;
17283;SDS011;8760;52.248;20.952;2023-04-24T04:18:19;15.40;;;8.27;;
17283;SDS011;8760;52.248;20.952;2023-04-24T04:20:47;13.30;;;8.83;;
17283;SDS011;8760;52.248;20.952;2023-04-24T04:23:14;18.63;;;7.67;;
17283;SDS011;8760;52.248;20.952;2023-04-24T04:25:41;9.87;;;7.37;;
17283;SDS011;8760;52.248;20.952;2023-04-24T04:28:08;10.23;;;7.37;;
17283;SDS011;8760;52.248;20.952;2023-04-24T04:30:35;10.93;;;7.30;;
17283;SDS011;8760;52.248;20.952;2023-04-24T04:33:04;11.83;;;7.77;;
17283;SDS011;8760;52.248;20.952;2023-04-24T04:35:31;14.73;;;7.60;;
17283;SDS011;8760;52.248;20.952;2023-04-24T04:37:58;10.50;;;7.73;;
17283;SDS011;8760;52.248;20.952;2023-04-24T04:40:25;18.60;;;7.90;;
17283;SDS011;8760;52.248;20.952;2023-04-24T04:42:53;14.93;;;8.23;;
17283;SDS011;8760;52.248;20.952;2023-04-24T04:45:20;12.53;;;7.83;;
17283;SDS011;8760;52.248;20.952;2023-04-24T04:47:49;14.30;;;7.57;;
17283;SDS011;8760;52.248;20.952;2023-04-24T04:50:17;10.73;;;7.93;;
17283;SDS011;8760;52.248;20.952;2023-04-24T04:52:44;12.63;;;7.63;;
17283;SDS011;8760;52.248;20.952;2023-04-24T04:55:11;10.17;;;7.60;;
17283;SDS011;8760;52.248;20.952;2023-04-24T04:57:39;11.73;;;8.53;;
17283;SDS011;8760;52.248;20.952;2023-04-24T05:00:07;10.47;;;7.80;;
17283;SDS011;8760;52.248;20.952;2023-04-24T05:02:36;11.57;;;8.43;;
17283;SDS011;8760;52.248;20.952;2023-04-24T05:05:04;18.67;;;8.17;;
17283;SDS011;8760;52.248;20.952;2023-04-24T05:07:33;12.47;;;7.93;;
17283;SDS011;8760;52.248;20.952;2023-04-24T05:10:00;16.23;;;8.17;;
17283;SDS011;8760;52.248;20.952;2023-04-24T05:12:27;17.23;;;9.40;;
17283;SDS011;8760;52.248;20.952;2023-04-24T05:14:53;14.30;;;7.83;;
17283;SDS011;8760;52.248;20.952;2023-04-24T05:17:20;14.67;;;8.30;;
17283;SDS011;8760;52.248;20.952;2023-04-24T05:19:47;17.43;;;7.73;;
17283;SDS011;8760;52.248;20.952;2023-04-24T05:22:14;13.47;;;7.93;;
17283;SDS011;8760;52.248;20.952;2023-04-24T05:24:44;16.93;;;8.70;;
17283;SDS011;8760;52.248;20.952;2023-04-24T05:27:10;13.57;;;8.80;;
17283;SDS011;8760;52.248;20.952;2023-04-24T05:29:37;15.27;;;7.77;;
17283;SDS011;8760;52.248;20.952;2023-04-24T05:32:05;14.23;;;8.20;;
17283;SDS011;8760;52.248;20.952;2023-04-24T05:34:32;20.37;;;13.97;;
17283;SDS011;8760;52.248;20.952;2023-04-24T05:36:59;11.13;;;7.70;;
17283;SDS011;8760;52.248;20.952;2023-04-24T05:39:26;13.13;;;8.33;;
17283;SDS011;8760;52.248;20.952;2023-04-24T05:41:54;13.50;;;8.10;;
17283;SDS011;8760;52.248;20.952;2023-04-24T05:44:23;10.70;;;7.97;;
17283;SDS011;8760;52.248;20.952;2023-04-24T05:46:50;10.70;;;7.30;;
17283;SDS011;8760;52.248;20.952;2023-04-24T05:49:20;12.50;;;7.57;;
17283;SDS011;8760;52.248;20.952;2023-04-24T05:51:47;16.60;;;7.87;;
17283;SDS011;8760;52.248;20.952;2023-04-24T05:54:14;12.83;;;8.00;;
17283;SDS011;8760;52.248;20.952;2023-04-24T05:56:41;13.63;;;7.77;;
17283;SDS011;8760;52.248;20.952;2023-04-24T05:59:09;11.47;;;7.63;;
17283;SDS011;8760;52.248;20.952;2023-04-24T06:01:36;13.90;;;7.88;;
17283;SDS011;8760;52.248;20.952;2023-04-24T06:04:03;12.90;;;7.50;;
17283;SDS011;8760;52.248;20.952;2023-04-24T06:06:30;15.03;;;8.20;;
17283;SDS011;8760;52.248;20.952;2023-04-24T06:08:57;13.63;;;8.05;;
17283;SDS011;8760;52.248;20.952;2023-04-24T06:11:24;11.95;;;7.55;;
17283;SDS011;8760;52.248;20.952;2023-04-24T06:13:51;13.15;;;7.97;;
17283;SDS011;8760;52.248;20.952;2023-04-24T06:16:22;11.68;;;6.82;;
17283;SDS011;8760;52.248;20.952;2023-04-24T06:18:49;13.98;;;8.00;;
17283;SDS011;8760;52.248;20.952;2023-04-24T06:21:16;11.23;;;7.35;;
17283;SDS011;8760;52.248;20.952;2023-04-24T06:23:43;16.50;;;7.57;;
17283;SDS011;8760;52.248;20.952;2023-04-24T06:26:11;12.95;;;6.75;;
17283;SDS011;8760;52.248;20.952;2023-04-24T06:28:38;15.80;;;7.70;;
17283;SDS011;8760;52.248;20.952;2023-04-24T06:31:05;17.60;;;7.60;;
17283;SDS011;8760;52.248;20.952;2023-04-24T06:33:33;12.57;;;6.68;;
17283;SDS011;8760;52.248;20.952;2023-04-24T06:36:00;15.07;;;7.32;;
17283;SDS011;8760;52.248;20.952;2023-04-24T06:38:29;12.75;;;6.82;;
17283;SDS011;8760;52.248;20.952;2023-04-24T06:40:56;11.00;;;7.25;;
17283;SDS011;8760;52.248;20.952;2023-04-24T06:43:23;12.82;;;6.82;;
17283;SDS011;8760;52.248;20.952;2023-04-24T06:45:50;13.70;;;7.57;;
17283;SDS011;8760;52.248;20.952;2023-04-24T06:48:16;13.38;;;7.90;;
17283;SDS011;8760;52.248;20.952;2023-04-24T06:50:47;26.23;;;7.53;;
17283;SDS011;8760;52.248;20.952;2023-04-24T06:53:14;14.88;;;8.00;;
17283;SDS011;8760;52.248;20.952;2023-04-24T06:55:41;11.63;;;7.22;;
17283;SDS011;8760;52.248;20.952;2023-04-24T06:58:10;26.60;;;8.65;;
17283;SDS011;8760;52.248;20.952;2023-04-24T07:00:37;14.05;;;8.13;;
17283;SDS011;8760;52.248;20.952;2023-04-24T07:03:04;13.27;;;7.28;;
17283;SDS011;8760;52.248;20.952;2023-04-24T07:05:31;13.85;;;7.95;;
17283;SDS011;8760;52.248;20.952;2023-04-24T07:08:01;14.45;;;7.32;;
17283;SDS011;8760;52.248;20.952;2023-04-24T07:10:29;13.77;;;7.75;;
17283;SDS011;8760;52.248;20.952;2023-04-24T07:12:56;13.55;;;7.28;;
17283;SDS011;8760;52.248;20.952;2023-04-24T07:15:23;15.65;;;7.40;;
17283;SDS011;8760;52.248;20.952;2023-04-24T07:17:49;11.50;;;6.53;;
17283;SDS011;8760;52.248;20.952;2023-04-24T07:20:16;14.02;;;6.97;;
17283;SDS011;8760;52.248;20.952;2023-04-24T07:22:43;12.75;;;6.93;;
17283;SDS011;8760;52.248;20.952;2023-04-24T07:25:12;14.63;;;7.38;;
17283;SDS011;8760;52.248;20.952;2023-04-24T07:27:39;11.40;;;7.10;;
17283;SDS011;8760;52.248;20.952;2023-04-24T07:30:06;15.13;;;7.18;;
17283;SDS011;8760;52.248;20.952;2023-04-24T07:32:33;14.55;;;7.05;;
17283;SDS011;8760;52.248;20.952;2023-04-24T07:35:01;10.30;;;6.60;;
17283;SDS011;8760;52.248;20.952;2023-04-24T07:37:28;12.48;;;6.50;;
17283;SDS011;8760;52.248;20.952;2023-04-24T07:39:55;14.18;;;6.75;;
17283;SDS011;8760;52.248;20.952;2023-04-24T07:42:23;14.25;;;6.88;;
17283;SDS011;8760;52.248;20.952;2023-04-24T07:44:50;18.45;;;7.13;;
17283;SDS011;8760;52.248;20.952;2023-04-24T07:47:17;13.50;;;7.05;;
17283;SDS011;8760;52.248;20.952;2023-04-24T07:49:44;11.13;;;6.38;;
17283;SDS011;8760;52.248;20.952;2023-04-24T07:52:11;10.45;;;5.97;;
17283;SDS011;8760;52.248;20.952;2023-04-24T07:54:38;11.32;;;6.80;;
17283;SDS011;8760;52.248;20.952;2023-04-24T07:57:05;12.25;;;7.80;;
17283;SDS011;8760;52.248;20.952;2023-04-24T07:59:34;12.35;;;7.70;;
17283;SDS011;8760;52.248;20.952;2023-04-24T08:02:01;16.70;;;7.63;;
17283;SDS011;8760;52.248;20.952;2023-04-24T08:04:28;15.82;;;7.40;;
17283;SDS011;8760;52.248;20.952;2023-04-24T08:06:55;13.60;;;6.47;;
17283;SDS011;8760;52.248;20.952;2023-04-24T08:09:22;12.30;;;7.57;;
17283;SDS011;8760;52.248;20.952;2023-04-24T08:11:49;15.70;;;7.05;;
17283;SDS011;8760;52.248;20.952;2023-04-24T08:14:16;10.73;;;7.43;;
17283;SDS011;8760;52.248;20.952;2023-04-24T08:16:47;14.95;;;7.32;;
17283;SDS011;8760;52.248;20.952;2023-04-24T08:19:14;12.07;;;7.65;;
17283;SDS011;8760;52.248;20.952;2023-04-24T08:21:41;10.35;;;7.85;;
17283;SDS011;8760;52.248;20.952;2023-04-24T08:24:08;14.65;;;7.53;;
17283;SDS011;8760;52.248;20.952;2023-04-24T08:26:35;15.43;;;7.85;;
17283;SDS011;8760;52.248;20.952;2023-04-24T08:29:01;9.98;;;7.47;;
17283;SDS011;8760;52.248;20.952;2023-04-24T08:31:28;16.88;;;8.52;;
17283;SDS011;8760;52.248;20.952;2023-04-24T08:33:57;12.82;;;7.68;;
17283;SDS011;8760;52.248;20.952;2023-04-24T08:36:25;14.68;;;7.97;;
17283;SDS011;8760;52.248;20.952;2023-04-24T08:38:52;12.05;;;7.63;;
17283;SDS011;8760;52.248;20.952;2023-04-24T08:41:19;15.20;;;8.10;;
17283;SDS011;8760;52.248;20.952;2023-04-24T08:43:46;12.43;;;7.82;;
17283;SDS011;8760;52.248;20.952;2023-04-24T08:46:13;10.27;;;8.32;;
17283;SDS011;8760;52.248;20.952;2023-04-24T08:48:42;16.63;;;8.48;;
17283;SDS011;8760;52.248;20.952;2023-04-24T08:51:11;16.92;;;8.10;;
17283;SDS011;8760;52.248;20.952;2023-04-24T08:53:38;12.90;;;8.25;;
17283;SDS011;8760;52.248;20.952;2023-04-24T08:56:06;13.20;;;7.70;;
17283;SDS011;8760;52.248;20.952;2023-04-24T08:58:33;14.23;;;7.72;;
17283;SDS011;8760;52.248;20.952;2023-04-24T09:01:01;14.95;;;8.30;;
17283;SDS011;8760;52.248;20.952;2023-04-24T09:03:29;16.73;;;7.82;;
17283;SDS011;8760;52.248;20.952;2023-04-24T09:05:57;15.98;;;7.93;;
17283;SDS011;8760;52.248;20.952;2023-04-24T09:08:26;14.27;;;7.75;;
17283;SDS011;8760;52.248;20.952;2023-04-24T09:10:55;11.95;;;7.63;;
17283;SDS011;8760;52.248;20.952;2023-04-24T09:13:23;17.00;;;7.72;;
17283;SDS011;8760;52.248;20.952;2023-04-24T09:15:51;13.50;;;7.78;;
17283;SDS011;8760;52.248;20.952;2023-04-24T09:18:19;13.93;;;7.03;;
17283;SDS011;8760;52.248;20.952;2023-04-24T09:23:34;12.15;;;7.32;;
17283;SDS011;8760;52.248;20.952;2023-04-24T09:26:02;14.48;;;6.40;;
17283;SDS011;8760;52.248;20.952;2023-04-24T09:28:30;12.18;;;7.38;;
17283;SDS011;8760;52.248;20.952;2023-04-24T09:31:05;10.68;;;6.60;;
17283;SDS011;8760;52.248;20.952;2023-04-24T09:33:33;11.20;;;6.07;;
17283;SDS011;8760;52.248;20.952;2023-04-24T09:36:06;12.48;;;6.00;;
17283;SDS011;8760;52.248;20.952;2023-04-24T09:38:35;12.63;;;6.22;;
17283;SDS011;8760;52.248;20.952;2023-04-24T09:41:04;9.32;;;5.80;;
17283;SDS011;8760;52.248;20.952;2023-04-24T09:43:32;10.02;;;5.32;;
17283;SDS011;8760;52.248;20.952;2023-04-24T09:46:00;8.80;;;5.32;;
17283;SDS011;8760;52.248;20.952;2023-04-24T09:48:31;7.18;;;5.10;;
17283;SDS011;8760;52.248;20.952;2023-04-24T09:51:00;11.73;;;4.72;;
17283;SDS011;8760;52.248;20.952;2023-04-24T09:53:28;10.35;;;5.10;;
17283;SDS011;8760;52.248;20.952;2023-04-24T09:55:58;13.77;;;4.90;;
17283;SDS011;8760;52.248;20.952;2023-04-24T09:58:29;8.65;;;5.50;;
17283;SDS011;8760;52.248;20.952;2023-04-24T10:00:56;10.93;;;4.88;;
17283;SDS011;8760;52.248;20.952;2023-04-24T10:03:23;7.10;;;5.03;;
17283;SDS011;8760;52.248;20.952;2023-04-24T10:05:52;10.02;;;4.82;;
17283;SDS011;8760;52.248;20.952;2023-04-24T10:08:19;7.28;;;4.63;;
17283;SDS011;8760;52.248;20.952;2023-04-24T10:10:47;9.02;;;4.50;;
17283;SDS011;8760;52.248;20.952;2023-04-24T10:13:15;6.80;;;4.70;;
17283;SDS011;8760;52.248;20.952;2023-04-24T10:15:42;6.20;;;4.78;;
17283;SDS011;8760;52.248;20.952;2023-04-24T10:18:10;8.13;;;5.05;;
17283;SDS011;8760;52.248;20.952;2023-04-24T10:20:38;11.38;;;5.25;;
17283;SDS011;8760;52.248;20.952;2023-04-24T10:23:06;8.75;;;4.75;;
17283;SDS011;8760;52.248;20.952;2023-04-24T10:25:33;8.07;;;5.10;;
17283;SDS011;8760;52.248;20.952;2023-04-24T10:28:01;10.25;;;5.70;;
17283;SDS011;8760;52.248;20.952;2023-04-24T10:30:31;7.60;;;5.50;;
17283;SDS011;8760;52.248;20.952;2023-04-24T10:33:01;9.48;;;6.32;;
17283;SDS011;8760;52.248;20.952;2023-04-24T10:35:30;8.60;;;5.57;;
17283;SDS011;8760;52.248;20.952;2023-04-24T10:37:59;8.73;;;5.78;;
17283;SDS011;8760;52.248;20.952;2023-04-24T10:40:30;12.90;;;5.75;;
17283;SDS011;8760;52.248;20.952;2023-04-24T10:42:58;9.48;;;6.00;;
17283;SDS011;8760;52.248;20.952;2023-04-24T10:45:32;9.57;;;5.63;;
17283;SDS011;8760;52.248;20.952;2023-04-24T10:48:01;6.88;;;5.28;;
17283;SDS011;8760;52.248;20.952;2023-04-24T10:50:29;8.63;;;5.60;;
17283;SDS011;8760;52.248;20.952;2023-04-24T10:53:12;13.43;;;5.93;;
17283;SDS011;8760;52.248;20.952;2023-04-24T10:55:45;10.40;;;6.28;;
17283;SDS011;8760;52.248;20.952;2023-04-24T10:58:13;9.23;;;5.47;;
17283;SDS011;8760;52.248;20.952;2023-04-24T11:00:43;7.13;;;5.75;;
17283;SDS011;8760;52.248;20.952;2023-04-24T11:03:24;6.72;;;5.20;;
17283;SDS011;8760;52.248;20.952;2023-04-24T11:05:55;6.35;;;5.65;;
17283;SDS011;8760;52.248;20.952;2023-04-24T11:08:24;10.57;;;6.65;;
17283;SDS011;8760;52.248;20.952;2023-04-24T11:10:59;8.85;;;6.20;;
17283;SDS011;8760;52.248;20.952;2023-04-24T11:13:31;8.30;;;6.45;;
17283;SDS011;8760;52.248;20.952;2023-04-24T11:16:33;8.70;;;6.35;;
17283;SDS011;8760;52.248;20.952;2023-04-24T11:19:06;9.57;;;5.85;;
17283;SDS011;8760;52.248;20.952;2023-04-24T11:21:40;7.13;;;4.88;;
17283;SDS011;8760;52.248;20.952;2023-04-24T11:26:56;6.60;;;5.30;;
17283;SDS011;8760;52.248;20.952;2023-04-24T11:29:38;10.80;;;6.00;;
17283;SDS011;8760;52.248;20.952;2023-04-24T11:32:24;8.75;;;4.95;;
17283;SDS011;8760;52.248;20.952;2023-04-24T11:34:53;7.78;;;6.80;;
17283;SDS011;8760;52.248;20.952;2023-04-24T11:37:21;6.13;;;5.53;;
17283;SDS011;8760;52.248;20.952;2023-04-24T11:39:50;8.05;;;5.63;;
17283;SDS011;8760;52.248;20.952;2023-04-24T11:42:18;6.80;;;5.40;;
17283;SDS011;8760;52.248;20.952;2023-04-24T11:44:47;6.07;;;5.47;;
17283;SDS011;8760;52.248;20.952;2023-04-24T11:47:15;7.40;;;5.47;;
17283;SDS011;8760;52.248;20.952;2023-04-24T11:49:43;5.95;;;5.10;;
17283;SDS011;8760;52.248;20.952;2023-04-24T11:52:11;5.50;;;5.00;;
17283;SDS011;8760;52.248;20.952;2023-04-24T11:54:46;5.55;;;4.45;;
17283;SDS011;8760;52.248;20.952;2023-04-24T11:57:14;5.43;;;4.15;;
17283;SDS011;8760;52.248;20.952;2023-04-24T11:59:41;10.10;;;5.30;;
17283;SDS011;8760;52.248;20.952;2023-04-24T12:02:08;6.15;;;4.90;;
17283;SDS011;8760;52.248;20.952;2023-04-24T12:04:38;9.45;;;5.10;;
17283;SDS011;8760;52.248;20.952;2023-04-24T12:07:07;5.20;;;4.43;;
17283;SDS011;8760;52.248;20.952;2023-04-24T12:09:41;9.60;;;4.55;;
17283;SDS011;8760;52.248;20.952;2023-04-24T12:12:10;5.88;;;4.32;;
17283;SDS011;8760;52.248;20.952;2023-04-24T12:14:44;5.63;;;4.78;;
17283;SDS011;8760;52.248;20.952;2023-04-24T12:17:14;6.80;;;5.20;;
17283;SDS011;8760;52.248;20.952;2023-04-24T12:19:45;8.88;;;5.18;;
17283;SDS011;8760;52.248;20.952;2023-04-24T12:22:14;10.02;;;5.07;;
17283;SDS011;8760;52.248;20.952;2023-04-24T12:24:57;7.53;;;4.57;;
17283;SDS011;8760;52.248;20.952;2023-04-24T12:27:25;6.63;;;4.78;;
17283;SDS011;8760;52.248;20.952;2023-04-24T12:29:53;7.22;;;4.78;;
17283;SDS011;8760;52.248;20.952;2023-04-24T12:32:21;6.20;;;4.80;;
17283;SDS011;8760;52.248;20.952;2023-04-24T12:34:50;7.47;;;4.55;;
17283;SDS011;8760;52.248;20.952;2023-04-24T12:37:19;9.20;;;5.28;;
17283;SDS011;8760;52.248;20.952;2023-04-24T12:39:58;7.03;;;5.28;;
17283;SDS011;8760;52.248;20.952;2023-04-24T12:42:27;8.95;;;5.10;;
17283;SDS011;8760;52.248;20.952;2023-04-24T12:44:58;6.80;;;4.60;;
17283;SDS011;8760;52.248;20.952;2023-04-24T12:47:26;7.03;;;5.05;;
17283;SDS011;8760;52.248;20.952;2023-04-24T12:49:53;16.08;;;4.47;;
17283;SDS011;8760;52.248;20.952;2023-04-24T12:52:22;35.53;;;5.35;;
17283;SDS011;8760;52.248;20.952;2023-04-24T12:54:51;22.35;;;4.90;;
17283;SDS011;8760;52.248;20.952;2023-04-24T12:57:20;60.97;;;6.85;;
17283;SDS011;8760;52.248;20.952;2023-04-24T12:59:47;19.38;;;3.83;;
17283;SDS011;8760;52.248;20.952;2023-04-24T13:02:14;15.40;;;3.90;;
17283;SDS011;8760;52.248;20.952;2023-04-24T13:04:43;12.07;;;3.00;;
17283;SDS011;8760;52.248;20.952;2023-04-24T13:07:11;13.32;;;4.35;;
17283;SDS011;8760;52.248;20.952;2023-04-24T13:09:40;7.53;;;2.90;;
17283;SDS011;8760;52.248;20.952;2023-04-24T13:12:07;7.78;;;3.08;;
17283;SDS011;8760;52.248;20.952;2023-04-24T13:14:34;6.43;;;2.63;;
17283;SDS011;8760;52.248;20.952;2023-04-24T13:17:02;10.30;;;2.90;;
17283;SDS011;8760;52.248;20.952;2023-04-24T13:19:34;10.07;;;2.67;;
17283;SDS011;8760;52.248;20.952;2023-04-24T13:22:02;5.57;;;2.88;;
17283;SDS011;8760;52.248;20.952;2023-04-24T13:24:30;6.43;;;2.75;;
17283;SDS011;8760;52.248;20.952;2023-04-24T13:26:59;6.35;;;2.85;;
17283;SDS011;8760;52.248;20.952;2023-04-24T13:29:27;6.18;;;3.33;;
17283;SDS011;8760;52.248;20.952;2023-04-24T13:31:54;9.48;;;3.00;;
17283;SDS011;8760;52.248;20.952;2023-04-24T13:34:22;4.00;;;2.80;;
17283;SDS011;8760;52.248;20.952;2023-04-24T13:36:49;12.60;;;3.13;;
17283;SDS011;8760;52.248;20.952;2023-04-24T13:39:16;6.55;;;3.03;;
17283;SDS011;8760;52.248;20.952;2023-04-24T13:41:43;7.75;;;3.08;;
17283;SDS011;8760;52.248;20.952;2023-04-24T13:44:13;11.00;;;3.03;;
17283;SDS011;8760;52.248;20.952;2023-04-24T13:46:41;5.80;;;3.13;;
17283;SDS011;8760;52.248;20.952;2023-04-24T13:49:10;9.88;;;3.20;;
17283;SDS011;8760;52.248;20.952;2023-04-24T13:51:37;7.30;;;3.30;;
17283;SDS011;8760;52.248;20.952;2023-04-24T13:54:05;4.55;;;3.03;;
17283;SDS011;8760;52.248;20.952;2023-04-24T13:56:32;5.03;;;3.05;;
17283;SDS011;8760;52.248;20.952;2023-04-24T13:58:59;8.48;;;3.30;;
17283;SDS011;8760;52.248;20.952;2023-04-24T14:01:28;4.68;;;3.05;;
17283;SDS011;8760;52.248;20.952;2023-04-24T14:03:55;4.82;;;2.75;;
17283;SDS011;8760;52.248;20.952;2023-04-24T14:06:22;5.43;;;2.88;;
17283;SDS011;8760;52.248;20.952;2023-04-24T14:08:50;6.85;;;3.10;;
17283;SDS011;8760;52.248;20.952;2023-04-24T14:11:17;6.43;;;3.00;;
17283;SDS011;8760;52.248;20.952;2023-04-24T14:13:44;4.93;;;3.03;;
17283;SDS011;8760;52.248;20.952;2023-04-24T14:16:12;5.63;;;3.00;;
17283;SDS011;8760;52.248;20.952;2023-04-24T14:18:41;7.05;;;2.75;;
17283;SDS011;8760;52.248;20.952;2023-04-24T14:21:08;6.00;;;3.40;;
17283;SDS011;8760;52.248;20.952;2023-04-24T14:23:35;4.57;;;3.00;;
17283;SDS011;8760;52.248;20.952;2023-04-24T14:26:02;4.38;;;2.80;;
17283;SDS011;8760;52.248;20.952;2023-04-24T14:28:30;7.35;;;2.95;;
17283;SDS011;8760;52.248;20.952;2023-04-24T14:30:57;8.38;;;3.20;;
17283;SDS011;8760;52.248;20.952;2023-04-24T14:33:23;11.73;;;4.20;;
17283;SDS011;8760;52.248;20.952;2023-04-24T14:35:52;4.43;;;3.25;;
17283;SDS011;8760;52.248;20.952;2023-04-24T14:38:19;4.93;;;3.25;;
17283;SDS011;8760;52.248;20.952;2023-04-24T14:40:46;3.97;;;3.40;;
17283;SDS011;8760;52.248;20.952;2023-04-24T14:43:13;10.68;;;3.22;;
17283;SDS011;8760;52.248;20.952;2023-04-24T14:45:40;5.55;;;2.97;;
17283;SDS011;8760;52.248;20.952;2023-04-24T14:48:07;7.30;;;3.20;;